createdAt,value
2023-04-18T00:04:50.810Z,13.83
2023-04-18T00:14:53.961Z,16.13
2023-04-18T00:24:58.752Z,16.07
2023-04-18T00:35:02.258Z,13.33
2023-04-18T00:45:08.307Z,15.60
2023-04-18T00:55:11.951Z,15.40
2023-04-18T01:05:17.630Z,17.90
2023-04-18T01:15:20.508Z,15.67
2023-04-18T01:25:24.980Z,14.00
2023-04-18T01:35:28.332Z,12.80
2023-04-18T01:45:33.810Z,13.30
2023-04-18T01:55:38.007Z,18.57
2023-04-18T02:05:43.688Z,19.70
2023-04-18T02:15:46.618Z,24.30
2023-04-18T02:25:52.489Z,17.27
2023-04-18T02:35:55.896Z,15.53
2023-04-18T02:45:59.993Z,15.73
2023-04-18T02:56:04.038Z,18.27
2023-04-18T03:06:28.409Z,17.57
2023-04-18T03:16:33.087Z,20.50
2023-04-18T03:26:39.580Z,17.20
2023-04-18T03:36:43.572Z,17.93
2023-04-18T03:46:49.515Z,18.23
2023-04-18T03:56:52.664Z,18.63
2023-04-18T04:06:58.039Z,20.67
2023-04-18T04:17:01.443Z,20.00
2023-04-18T04:27:08.808Z,18.93
2023-04-18T04:37:14.223Z,16.83
2023-04-18T04:47:37.421Z,19.37
2023-04-18T04:57:40.877Z,23.13
2023-04-18T05:08:01.834Z,25.00
2023-04-18T05:18:05.385Z,18.13
2023-04-18T05:28:10.677Z,22.30
2023-04-18T05:38:14.530Z,28.60
2023-04-18T05:48:19.106Z,21.23
2023-04-18T05:58:22.138Z,21.80
2023-04-18T06:08:26.961Z,20.30
2023-04-18T06:18:29.938Z,19.37
2023-04-18T06:28:36.512Z,17.93
2023-04-18T06:38:39.642Z,19.30
2023-04-18T06:48:43.926Z,18.40
2023-04-18T06:58:47.143Z,20.90
2023-04-18T07:08:53.953Z,16.43
2023-04-18T07:18:57.765Z,15.87
2023-04-18T07:29:02.244Z,12.93
2023-04-18T07:39:05.503Z,15.97
2023-04-18T07:49:09.811Z,13.13
2023-04-18T07:59:13.418Z,11.93
2023-04-18T08:09:19.414Z,11.33
2023-04-18T08:19:23.779Z,11.30
2023-04-18T08:29:27.996Z,11.90
2023-04-18T08:39:31.308Z,10.37
2023-04-18T08:49:36.352Z,9.60
2023-04-18T08:59:40.588Z,11.13
2023-04-18T09:09:47.476Z,9.87
2023-04-18T09:19:51.101Z,9.53
2023-04-18T09:29:57.819Z,12.57
2023-04-18T09:40:01.655Z,11.10
2023-04-18T09:50:07.735Z,10.13
2023-04-18T10:00:17.763Z,12.00
2023-04-18T10:10:23.140Z,9.30
2023-04-18T10:20:27.092Z,8.73
2023-04-18T10:30:54.498Z,9.30
2023-04-18T10:41:31.646Z,8.73
2023-04-18T10:51:36.080Z,7.93
2023-04-18T11:01:39.384Z,8.60
2023-04-18T11:11:44.681Z,7.50
2023-04-18T11:21:48.746Z,8.20
2023-04-18T11:31:57.481Z,11.10
2023-04-18T11:42:01.559Z,8.87
2023-04-18T11:52:13.151Z,8.23
2023-04-18T12:02:17.264Z,9.93
2023-04-18T12:12:21.817Z,8.87
2023-04-18T12:22:43.174Z,6.87
2023-04-18T12:32:50.795Z,8.20
2023-04-18T12:42:55.861Z,6.60
2023-04-18T13:15:31.043Z,5.20
2023-04-18T13:25:35.616Z,7.10
2023-04-18T13:35:38.796Z,6.77
2023-04-18T13:45:43.265Z,6.77
2023-04-18T13:55:47.413Z,6.60
2023-04-18T14:05:52.215Z,7.40
2023-04-18T14:15:55.437Z,8.47
2023-04-18T14:26:00.006Z,10.17
2023-04-18T14:36:03.158Z,6.73
2023-04-18T14:46:13.794Z,8.10
2023-04-18T14:56:20.968Z,8.13
2023-04-18T15:06:25.736Z,7.67
2023-04-18T15:16:28.829Z,7.70
2023-04-18T15:26:33.340Z,6.07
2023-04-18T15:36:36.869Z,7.33
2023-04-18T15:46:41.451Z,5.97
2023-04-18T15:56:44.863Z,6.97
2023-04-18T16:06:49.443Z,6.50
2023-04-18T16:16:53.827Z,5.40
2023-04-18T16:26:58.638Z,5.67
2023-04-18T16:37:01.719Z,6.13
2023-04-18T16:47:08.436Z,4.73
2023-04-18T16:57:12.550Z,4.83
2023-04-18T17:07:16.729Z,4.37
2023-04-18T17:17:19.643Z,5.13
2023-04-18T17:27:24.118Z,5.53
2023-04-18T17:37:27.262Z,4.37
2023-04-18T17:47:33.618Z,5.43
2023-04-18T17:57:37.325Z,5.20
2023-04-18T18:07:43.871Z,4.63
2023-04-18T18:17:49.810Z,4.60
2023-04-18T18:27:54.674Z,5.07
2023-04-18T18:37:57.853Z,5.13
2023-04-18T18:48:03.858Z,4.23
2023-04-18T18:58:07.878Z,5.03
2023-04-18T19:08:12.386Z,5.23
2023-04-18T19:18:15.417Z,7.73
2023-04-18T19:28:19.903Z,10.93
2023-04-18T19:38:22.953Z,6.57
2023-04-18T19:48:27.986Z,5.33
2023-04-18T19:58:38.114Z,5.37
2023-04-18T20:08:42.937Z,6.30
2023-04-18T20:18:47.324Z,8.00
2023-04-18T20:28:52.472Z,6.70
2023-04-18T20:38:55.575Z,6.57
2023-04-18T20:48:59.875Z,6.67
2023-04-18T20:59:04.764Z,6.00
2023-04-18T21:09:09.665Z,5.40
2023-04-18T21:19:12.897Z,7.00
2023-04-18T21:29:17.503Z,5.73
2023-04-18T21:39:20.695Z,7.40
2023-04-18T21:49:24.966Z,7.93
2023-04-18T21:59:28.331Z,5.77
2023-04-18T22:09:36.342Z,7.23
2023-04-18T22:19:39.758Z,11.00
2023-04-18T22:29:44.188Z,8.83
2023-04-18T22:39:47.098Z,8.67
2023-04-18T22:49:51.903Z,9.03
2023-04-18T22:59:54.845Z,10.00
2023-04-18T23:09:59.607Z,7.40
2023-04-18T23:20:02.726Z,5.70
2023-04-18T23:30:08.888Z,6.23
2023-04-18T23:40:12.158Z,8.43
2023-04-18T23:50:16.561Z,7.97
